sensor_id;sensor_type;location;lat;lon;timestamp;pressure;altitude;pressure_sealevel;temperature;humidity
13033;BME280;6583;42.632;23.298;2023-08-21T00:00:54;69332.91;;;-146.40;41.48
13033;BME280;6583;42.632;23.298;2023-08-21T00:03:21;69330.88;;;-146.40;41.59
13033;BME280;6583;42.632;23.298;2023-08-21T00:05:48;69341.00;;;-146.40;41.80
13033;BME280;6583;42.632;23.298;2023-08-21T00:08:14;69341.00;;;-146.40;41.48
13033;BME280;6583;42.632;23.298;2023-08-21T00:10:42;69341.00;;;-146.40;41.38
13033;BME280;6583;42.632;23.298;2023-08-21T00:13:09;69341.00;;;-146.40;41.51
13033;BME280;6583;42.632;23.298;2023-08-21T00:15:37;69343.03;;;-146.40;41.34
13033;BME280;6583;42.632;23.298;2023-08-21T00:18:04;69341.00;;;-146.40;41.30
13033;BME280;6583;42.632;23.298;2023-08-21T00:20:31;69343.03;;;-146.40;41.89
13033;BME280;6583;42.632;23.298;2023-08-21T00:22:57;69345.03;;;-146.40;41.54
13033;BME280;6583;42.632;23.298;2023-08-21T00:25:24;69361.22;;;-146.40;42.08
13033;BME280;6583;42.632;23.298;2023-08-21T00:27:52;69369.31;;;-146.40;42.26
13033;BME280;6583;42.632;23.298;2023-08-21T00:30:19;69359.19;;;-146.40;42.00
13033;BME280;6583;42.632;23.298;2023-08-21T00:32:46;69357.19;;;-146.40;42.27
13033;BME280;6583;42.632;23.298;2023-08-21T00:35:12;69365.28;;;-146.40;42.38
13033;BME280;6583;42.632;23.298;2023-08-21T00:37:39;69371.34;;;-146.40;42.25
13033;BME280;6583;42.632;23.298;2023-08-21T00:40:07;69373.38;;;-146.40;41.90
13033;BME280;6583;42.632;23.298;2023-08-21T00:42:33;69367.28;;;-146.40;41.71
13033;BME280;6583;42.632;23.298;2023-08-21T00:45:03;69373.38;;;-146.40;41.93
13033;BME280;6583;42.632;23.298;2023-08-21T00:47:30;69379.44;;;-146.40;41.94
13033;BME280;6583;42.632;23.298;2023-08-21T00:49:57;69375.38;;;-146.40;42.28
13033;BME280;6583;42.632;23.298;2023-08-21T00:52:24;69385.50;;;-146.40;42.34
13033;BME280;6583;42.632;23.298;2023-08-21T00:54:50;69393.59;;;-146.40;42.19
13033;BME280;6583;42.632;23.298;2023-08-21T00:57:18;69385.50;;;-146.40;42.15
13033;BME280;6583;42.632;23.298;2023-08-21T00:59:46;69379.44;;;-146.40;41.84
13033;BME280;6583;42.632;23.298;2023-08-21T01:02:15;69385.50;;;-146.40;41.97
13033;BME280;6583;42.632;23.298;2023-08-21T01:04:43;69387.53;;;-146.40;42.12
13033;BME280;6583;42.632;23.298;2023-08-21T01:07:09;69385.50;;;-146.40;42.54
13033;BME280;6583;42.632;23.298;2023-08-21T01:09:39;69395.59;;;-146.40;42.22
13033;BME280;6583;42.632;23.298;2023-08-21T01:12:14;69395.59;;;-146.40;42.11
13033;BME280;6583;42.632;23.298;2023-08-21T01:14:50;69399.66;;;-146.40;42.18
13033;BME280;6583;42.632;23.298;2023-08-21T01:17:19;69399.66;;;-146.40;42.23
13033;BME280;6583;42.632;23.298;2023-08-21T01:19:49;69397.63;;;-146.40;42.25
13033;BME280;6583;42.632;23.298;2023-08-21T01:22:16;69401.69;;;-146.40;41.82
13033;BME280;6583;42.632;23.298;2023-08-21T01:24:44;69401.69;;;-146.40;41.81
13033;BME280;6583;42.632;23.298;2023-08-21T01:27:13;69393.59;;;-146.40;42.03
13033;BME280;6583;42.632;23.298;2023-08-21T01:29:41;69393.59;;;-146.40;41.81
13033;BME280;6583;42.632;23.298;2023-08-21T01:32:14;69387.53;;;-146.40;41.65
13033;BME280;6583;42.632;23.298;2023-08-21T01:34:46;69389.53;;;-146.40;41.62
13033;BME280;6583;42.632;23.298;2023-08-21T01:37:14;69377.41;;;-146.40;41.33
13033;BME280;6583;42.632;23.298;2023-08-21T01:39:41;69373.38;;;-146.40;41.36
13033;BME280;6583;42.632;23.298;2023-08-21T01:42:10;69375.38;;;-146.40;41.26
13033;BME280;6583;42.632;23.298;2023-08-21T01:44:36;69369.31;;;-146.40;40.85
13033;BME280;6583;42.632;23.298;2023-08-21T01:47:03;69371.34;;;-146.40;41.00
13033;BME280;6583;42.632;23.298;2023-08-21T01:49:30;69373.38;;;-146.40;40.69
13033;BME280;6583;42.632;23.298;2023-08-21T01:51:57;69373.38;;;-146.40;40.47
13033;BME280;6583;42.632;23.298;2023-08-21T01:54:23;69371.34;;;-146.40;40.87
13033;BME280;6583;42.632;23.298;2023-08-21T01:56:50;69365.28;;;-146.40;40.88
13033;BME280;6583;42.632;23.298;2023-08-21T01:59:19;69365.28;;;-146.40;40.39
13033;BME280;6583;42.632;23.298;2023-08-21T02:01:46;69365.28;;;-146.40;40.15
13033;BME280;6583;42.632;23.298;2023-08-21T02:04:13;69365.28;;;-146.40;40.78
13033;BME280;6583;42.632;23.298;2023-08-21T02:06:39;69361.22;;;-146.40;40.50
13033;BME280;6583;42.632;23.298;2023-08-21T02:09:06;69365.28;;;-146.40;40.78
13033;BME280;6583;42.632;23.298;2023-08-21T02:11:33;69363.25;;;-146.40;40.95
13033;BME280;6583;42.632;23.298;2023-08-21T02:13:59;69365.28;;;-146.40;40.69
13033;BME280;6583;42.632;23.298;2023-08-21T02:16:27;69365.28;;;-146.40;40.25
13033;BME280;6583;42.632;23.298;2023-08-21T02:18:54;69367.28;;;-146.40;40.71
13033;BME280;6583;42.632;23.298;2023-08-21T02:21:22;69365.28;;;-146.40;40.66
13033;BME280;6583;42.632;23.298;2023-08-21T02:23:48;69365.28;;;-146.40;42.60
13033;BME280;6583;42.632;23.298;2023-08-21T02:26:15;69361.22;;;-146.40;42.33
13033;BME280;6583;42.632;23.298;2023-08-21T02:28:42;69359.19;;;-146.40;42.34
13033;BME280;6583;42.632;23.298;2023-08-21T02:31:09;69361.22;;;-146.40;42.52
13033;BME280;6583;42.632;23.298;2023-08-21T02:33:37;69373.38;;;-146.40;42.34
13033;BME280;6583;42.632;23.298;2023-08-21T02:36:04;69381.44;;;-146.40;42.43
13033;BME280;6583;42.632;23.298;2023-08-21T02:38:32;69397.63;;;-146.40;43.49
13033;BME280;6583;42.632;23.298;2023-08-21T02:40:59;69409.78;;;-146.40;43.37
13033;BME280;6583;42.632;23.298;2023-08-21T02:43:26;69421.91;;;-146.40;43.04
13033;BME280;6583;42.632;23.298;2023-08-21T02:45:52;69430.00;;;-146.40;43.56
13033;BME280;6583;42.632;23.298;2023-08-21T02:48:19;69446.19;;;-146.40;43.59
13033;BME280;6583;42.632;23.298;2023-08-21T02:50:48;69448.19;;;-146.40;44.48
13033;BME280;6583;42.632;23.298;2023-08-21T02:53:15;69448.19;;;-146.40;43.84
13033;BME280;6583;42.632;23.298;2023-08-21T02:55:41;69444.16;;;-146.40;44.71
13033;BME280;6583;42.632;23.298;2023-08-21T02:58:08;69450.22;;;-146.40;44.84
13033;BME280;6583;42.632;23.298;2023-08-21T03:00:35;69456.28;;;-146.40;43.84
13033;BME280;6583;42.632;23.298;2023-08-21T03:03:05;69452.25;;;-146.40;44.32
13033;BME280;6583;42.632;23.298;2023-08-21T03:05:31;69454.25;;;-146.40;44.84
13033;BME280;6583;42.632;23.298;2023-08-21T03:07:59;69458.31;;;-146.40;44.66
13033;BME280;6583;42.632;23.298;2023-08-21T03:10:26;69462.34;;;-146.40;43.89
13033;BME280;6583;42.632;23.298;2023-08-21T03:12:55;69448.19;;;-146.40;45.22
13033;BME280;6583;42.632;23.298;2023-08-21T03:15:21;69466.41;;;-146.40;45.19
13033;BME280;6583;42.632;23.298;2023-08-21T03:17:48;69470.44;;;-146.40;45.30
13033;BME280;6583;42.632;23.298;2023-08-21T03:20:15;69478.53;;;-146.40;45.59
13033;BME280;6583;42.632;23.298;2023-08-21T03:22:42;69482.59;;;-146.40;44.85
13033;BME280;6583;42.632;23.298;2023-08-21T03:25:10;69486.63;;;-146.40;45.70
13033;BME280;6583;42.632;23.298;2023-08-21T03:27:37;69502.81;;;-146.40;45.67
13033;BME280;6583;42.632;23.298;2023-08-21T03:30:06;69506.84;;;-146.40;46.42
13033;BME280;6583;42.632;23.298;2023-08-21T03:32:33;69523.03;;;-146.40;46.68
13033;BME280;6583;42.632;23.298;2023-08-21T03:35:00;69523.03;;;-146.40;45.46
13033;BME280;6583;42.632;23.298;2023-08-21T03:37:26;69514.94;;;-146.40;46.56
13033;BME280;6583;42.632;23.298;2023-08-21T03:39:53;69504.84;;;-146.40;44.94
13033;BME280;6583;42.632;23.298;2023-08-21T03:42:21;69494.72;;;-146.40;46.23
13033;BME280;6583;42.632;23.298;2023-08-21T03:44:48;69514.94;;;-146.40;45.69
13033;BME280;6583;42.632;23.298;2023-08-21T03:47:15;69504.84;;;-146.40;45.26
13033;BME280;6583;42.632;23.298;2023-08-21T03:49:42;69516.97;;;-146.40;46.45
13033;BME280;6583;42.632;23.298;2023-08-21T03:52:09;69519.00;;;-146.40;46.32
13033;BME280;6583;42.632;23.298;2023-08-21T03:54:35;69529.09;;;-146.40;47.35
13033;BME280;6583;42.632;23.298;2023-08-21T03:57:02;69531.13;;;-146.40;46.72
13033;BME280;6583;42.632;23.298;2023-08-21T03:59:30;69541.25;;;-146.40;46.26
13033;BME280;6583;42.632;23.298;2023-08-21T04:01:57;69543.25;;;-146.40;46.45
13033;BME280;6583;42.632;23.298;2023-08-21T04:04:24;69543.25;;;-146.40;47.21
13033;BME280;6583;42.632;23.298;2023-08-21T04:06:50;69555.41;;;-146.40;46.97
13033;BME280;6583;42.632;23.298;2023-08-21T04:09:17;69543.25;;;-146.40;48.56
13033;BME280;6583;42.632;23.298;2023-08-21T04:11:44;69551.34;;;-146.40;47.62
13033;BME280;6583;42.632;23.298;2023-08-21T04:14:10;69557.41;;;-146.40;48.98
13033;BME280;6583;42.632;23.298;2023-08-21T04:16:38;69563.47;;;-146.40;48.18
13033;BME280;6583;42.632;23.298;2023-08-21T04:19:05;69579.66;;;-146.40;49.27
13033;BME280;6583;42.632;23.298;2023-08-21T04:21:32;69573.59;;;-146.40;49.95
13033;BME280;6583;42.632;23.298;2023-08-21T04:23:59;69575.63;;;-146.40;49.83
13033;BME280;6583;42.632;23.298;2023-08-21T04:26:26;69567.53;;;-146.40;49.52
13033;BME280;6583;42.632;23.298;2023-08-21T04:28:52;69565.50;;;-146.40;49.54
13033;BME280;6583;42.632;23.298;2023-08-21T04:31:19;69559.44;;;-146.40;50.29
13033;BME280;6583;42.632;23.298;2023-08-21T04:33:47;69551.34;;;-146.40;50.77
13033;BME280;6583;42.632;23.298;2023-08-21T04:36:17;69555.41;;;-146.40;50.71
13033;BME280;6583;42.632;23.298;2023-08-21T04:38:43;69553.38;;;-146.40;49.83
13033;BME280;6583;42.632;23.298;2023-08-21T04:41:10;69533.16;;;-146.40;50.47
13033;BME280;6583;42.632;23.298;2023-08-21T04:43:37;69521.00;;;-146.40;50.07
13033;BME280;6583;42.632;23.298;2023-08-21T04:46:04;69510.91;;;-146.40;50.88
13033;BME280;6583;42.632;23.298;2023-08-21T04:48:30;69502.81;;;-146.40;52.44
13033;BME280;6583;42.632;23.298;2023-08-21T04:50:58;69504.84;;;-146.40;51.85
13033;BME280;6583;42.632;23.298;2023-08-21T04:53:25;69500.78;;;-146.40;51.24
13033;BME280;6583;42.632;23.298;2023-08-21T04:55:52;69490.66;;;-146.40;51.07
13033;BME280;6583;42.632;23.298;2023-08-21T04:58:18;69482.59;;;-146.40;51.05
13033;BME280;6583;42.632;23.298;2023-08-21T05:00:45;69478.53;;;-146.40;50.24
13033;BME280;6583;42.632;23.298;2023-08-21T05:03:12;69466.41;;;-146.40;50.74
13033;BME280;6583;42.632;23.298;2023-08-21T05:05:38;69462.34;;;-146.40;48.57
13033;BME280;6583;42.632;23.298;2023-08-21T05:08:06;69460.34;;;-146.40;47.51
13033;BME280;6583;42.632;23.298;2023-08-21T05:10:33;69450.22;;;-146.40;47.63
13033;BME280;6583;42.632;23.298;2023-08-21T05:13:00;69454.25;;;-146.40;46.50
13033;BME280;6583;42.632;23.298;2023-08-21T05:15:27;69454.25;;;-146.40;46.21
13033;BME280;6583;42.632;23.298;2023-08-21T05:17:53;69444.16;;;-146.40;46.60
13033;BME280;6583;42.632;23.298;2023-08-21T05:20:20;69442.13;;;-146.40;45.68
13033;BME280;6583;42.632;23.298;2023-08-21T05:22:47;69434.03;;;-146.40;46.31
13033;BME280;6583;42.632;23.298;2023-08-21T05:25:15;69423.94;;;-146.40;46.00
13033;BME280;6583;42.632;23.298;2023-08-21T05:27:42;69421.91;;;-146.40;46.38
13033;BME280;6583;42.632;23.298;2023-08-21T05:30:09;69417.84;;;-146.40;47.27
13033;BME280;6583;42.632;23.298;2023-08-21T05:32:37;69405.72;;;-146.40;46.97
13033;BME280;6583;42.632;23.298;2023-08-21T05:35:04;69405.72;;;-146.40;46.23
13033;BME280;6583;42.632;23.298;2023-08-21T05:37:33;69393.59;;;-146.40;46.91
13033;BME280;6583;42.632;23.298;2023-08-21T05:40:00;69381.44;;;-146.40;47.06
13033;BME280;6583;42.632;23.298;2023-08-21T05:42:28;69371.34;;;-146.40;46.66
13033;BME280;6583;42.632;23.298;2023-08-21T05:44:55;69357.19;;;-146.40;46.57
13033;BME280;6583;42.632;23.298;2023-08-21T05:47:22;69351.13;;;-146.40;47.30
13033;BME280;6583;42.632;23.298;2023-08-21T05:49:50;69336.97;;;-146.40;47.14
13033;BME280;6583;42.632;23.298;2023-08-21T05:52:18;69316.72;;;-146.40;46.40
13033;BME280;6583;42.632;23.298;2023-08-21T05:54:44;69294.47;;;-146.40;45.17
13033;BME280;6583;42.632;23.298;2023-08-21T05:57:11;69274.25;;;-146.40;44.49
13033;BME280;6583;42.632;23.298;2023-08-21T05:59:43;69256.06;;;-146.40;44.19
13033;BME280;6583;42.632;23.298;2023-08-21T06:02:11;69235.84;;;-146.40;43.49
13033;BME280;6583;42.632;23.298;2023-08-21T06:04:39;69231.78;;;-146.40;43.54
13033;BME280;6583;42.632;23.298;2023-08-21T06:07:06;69207.53;;;-146.40;42.78
13033;BME280;6583;42.632;23.298;2023-08-21T06:09:32;69201.44;;;-146.40;43.28
13033;BME280;6583;42.632;23.298;2023-08-21T06:11:59;69193.38;;;-146.40;43.76
13033;BME280;6583;42.632;23.298;2023-08-21T06:14:27;69203.47;;;-146.40;41.58
13033;BME280;6583;42.632;23.298;2023-08-21T06:16:56;69171.13;;;-146.40;42.91
13033;BME280;6583;42.632;23.298;2023-08-21T06:19:23;69146.84;;;-146.40;41.79
13033;BME280;6583;42.632;23.298;2023-08-21T06:21:49;69142.81;;;-146.40;42.29
13033;BME280;6583;42.632;23.298;2023-08-21T06:24:16;69126.63;;;-146.40;42.58
13033;BME280;6583;42.632;23.298;2023-08-21T06:26:43;69110.44;;;-146.40;42.11
13033;BME280;6583;42.632;23.298;2023-08-21T06:29:09;69100.34;;;-146.40;40.97
13033;BME280;6583;42.632;23.298;2023-08-21T06:31:36;69092.25;;;-146.40;41.87
13033;BME280;6583;42.632;23.298;2023-08-21T06:34:04;69090.22;;;-146.40;42.53
13033;BME280;6583;42.632;23.298;2023-08-21T06:36:31;69072.03;;;-146.40;41.96
13033;BME280;6583;42.632;23.298;2023-08-21T06:38:58;69059.88;;;-146.40;40.13
13033;BME280;6583;42.632;23.298;2023-08-21T06:41:24;69049.78;;;-146.40;41.10
13033;BME280;6583;42.632;23.298;2023-08-21T06:43:51;69039.66;;;-146.40;42.39
13033;BME280;6583;42.632;23.298;2023-08-21T06:46:18;69023.47;;;-146.40;40.53
13033;BME280;6583;42.632;23.298;2023-08-21T06:48:45;69013.38;;;-146.40;39.51
13033;BME280;6583;42.632;23.298;2023-08-21T06:51:13;69011.34;;;-146.40;39.04
13033;BME280;6583;42.632;23.298;2023-08-21T06:53:39;69005.28;;;-146.40;39.42
13033;BME280;6583;42.632;23.298;2023-08-21T06:56:06;69007.31;;;-146.40;38.70
13033;BME280;6583;42.632;23.298;2023-08-21T06:58:33;69001.25;;;-146.40;38.76
13033;BME280;6583;42.632;23.298;2023-08-21T07:01:00;68989.09;;;-146.40;38.57
13033;BME280;6583;42.632;23.298;2023-08-21T07:03:27;68979.00;;;-146.40;39.23
13033;BME280;6583;42.632;23.298;2023-08-21T07:05:54;68976.97;;;-146.40;39.87
13033;BME280;6583;42.632;23.298;2023-08-21T07:08:23;68976.97;;;-146.40;37.98
13033;BME280;6583;42.632;23.298;2023-08-21T07:10:50;68968.88;;;-146.40;38.86
13033;BME280;6583;42.632;23.298;2023-08-21T07:13:17;68989.09;;;-146.40;36.85
13033;BME280;6583;42.632;23.298;2023-08-21T07:15:45;68985.06;;;-146.40;36.02
13033;BME280;6583;42.632;23.298;2023-08-21T07:18:11;68968.88;;;-146.40;36.98
13033;BME280;6583;42.632;23.298;2023-08-21T07:20:38;68974.94;;;-146.40;36.64
13033;BME280;6583;42.632;23.298;2023-08-21T07:23:05;68964.84;;;-146.40;36.45
13033;BME280;6583;42.632;23.298;2023-08-21T07:25:33;68944.63;;;-146.40;36.43
13033;BME280;6583;42.632;23.298;2023-08-21T07:27:59;68928.44;;;-146.40;36.67
13033;BME280;6583;42.632;23.298;2023-08-21T07:30:26;68912.25;;;-146.40;36.40
13033;BME280;6583;42.632;23.298;2023-08-21T07:32:53;68900.13;;;-146.40;36.35
13033;BME280;6583;42.632;23.298;2023-08-21T07:35:20;68888.00;;;-146.40;35.02
13033;BME280;6583;42.632;23.298;2023-08-21T07:37:47;68879.91;;;-146.40;34.13
13033;BME280;6583;42.632;23.298;2023-08-21T07:40:13;68875.84;;;-146.40;34.93
13033;BME280;6583;42.632;23.298;2023-08-21T07:42:41;68861.69;;;-146.40;36.28
13033;BME280;6583;42.632;23.298;2023-08-21T07:45:08;68867.75;;;-146.40;35.11
13033;BME280;6583;42.632;23.298;2023-08-21T07:47:35;68857.66;;;-146.40;35.84
13033;BME280;6583;42.632;23.298;2023-08-21T07:50:02;68847.53;;;-146.40;35.06
13033;BME280;6583;42.632;23.298;2023-08-21T07:52:29;68843.50;;;-146.40;35.42
13033;BME280;6583;42.632;23.298;2023-08-21T07:54:55;68845.53;;;-146.40;34.66
13033;BME280;6583;42.632;23.298;2023-08-21T07:57:24;68855.63;;;-146.40;34.41
13033;BME280;6583;42.632;23.298;2023-08-21T07:59:52;68847.53;;;-146.40;34.78
13033;BME280;6583;42.632;23.298;2023-08-21T08:02:19;68849.56;;;-146.40;34.87
13033;BME280;6583;42.632;23.298;2023-08-21T08:04:46;68847.53;;;-146.40;35.77
13033;BME280;6583;42.632;23.298;2023-08-21T08:07:12;68853.63;;;-146.40;33.98
13033;BME280;6583;42.632;23.298;2023-08-21T08:09:39;68847.53;;;-146.40;33.64
13033;BME280;6583;42.632;23.298;2023-08-21T08:12:06;68843.50;;;-146.40;35.13
13033;BME280;6583;42.632;23.298;2023-08-21T08:14:33;68853.63;;;-146.40;34.19
13033;BME280;6583;42.632;23.298;2023-08-21T08:17:01;68839.47;;;-146.40;34.37
13033;BME280;6583;42.632;23.298;2023-08-21T08:19:28;68841.47;;;-146.40;34.06
13033;BME280;6583;42.632;23.298;2023-08-21T08:21:55;68839.47;;;-146.40;34.33
13033;BME280;6583;42.632;23.298;2023-08-21T08:24:21;68837.44;;;-146.40;33.74
13033;BME280;6583;42.632;23.298;2023-08-21T08:26:48;68825.31;;;-146.40;33.34
13033;BME280;6583;42.632;23.298;2023-08-21T08:29:15;68817.22;;;-146.40;33.00
13033;BME280;6583;42.632;23.298;2023-08-21T08:31:41;68837.44;;;-146.40;34.21
13033;BME280;6583;42.632;23.298;2023-08-21T08:34:09;68825.31;;;-146.40;34.07
13033;BME280;6583;42.632;23.298;2023-08-21T08:36:36;68807.09;;;-146.40;34.34
13033;BME280;6583;42.632;23.298;2023-08-21T08:39:03;68784.84;;;-146.40;33.85
13033;BME280;6583;42.632;23.298;2023-08-21T08:41:37;68772.72;;;-146.40;32.69
13033;BME280;6583;42.632;23.298;2023-08-21T08:44:05;68758.56;;;-146.40;33.21
13033;BME280;6583;42.632;23.298;2023-08-21T08:46:32;68740.38;;;-146.40;32.74
13033;BME280;6583;42.632;23.298;2023-08-21T08:49:00;68726.22;;;-146.40;32.57
13033;BME280;6583;42.632;23.298;2023-08-21T08:51:31;68718.13;;;-146.40;32.30
13033;BME280;6583;42.632;23.298;2023-08-21T08:54:00;68708.00;;;-146.40;32.89
13033;BME280;6583;42.632;23.298;2023-08-21T08:56:27;68720.16;;;-146.40;32.25
13033;BME280;6583;42.632;23.298;2023-08-21T08:58:53;68718.13;;;-146.40;32.38
13033;BME280;6583;42.632;23.298;2023-08-21T09:01:20;68726.22;;;-146.40;31.11
13033;BME280;6583;42.632;23.298;2023-08-21T09:03:46;68718.13;;;-146.40;32.11
13033;BME280;6583;42.632;23.298;2023-08-21T09:06:15;68706.00;;;-146.40;32.39
13033;BME280;6583;42.632;23.298;2023-08-21T09:08:53;68699.94;;;-146.40;31.24
13033;BME280;6583;42.632;23.298;2023-08-21T09:11:20;68681.72;;;-146.40;32.25
13033;BME280;6583;42.632;23.298;2023-08-21T09:13:49;68691.84;;;-146.40;32.25
13033;BME280;6583;42.632;23.298;2023-08-21T09:16:16;68681.72;;;-146.40;31.24
13033;BME280;6583;42.632;23.298;2023-08-21T09:18:46;68673.63;;;-146.40;31.81
13033;BME280;6583;42.632;23.298;2023-08-21T09:21:16;68667.56;;;-146.40;31.36
13033;BME280;6583;42.632;23.298;2023-08-21T09:23:44;68649.38;;;-146.40;31.73
13033;BME280;6583;42.632;23.298;2023-08-21T09:26:11;68635.22;;;-146.40;30.92
13033;BME280;6583;42.632;23.298;2023-08-21T09:28:38;68629.16;;;-146.40;31.97
13033;BME280;6583;42.632;23.298;2023-08-21T09:31:04;68617.03;;;-146.40;30.87
13033;BME280;6583;42.632;23.298;2023-08-21T09:33:31;68604.88;;;-146.40;29.89
13033;BME280;6583;42.632;23.298;2023-08-21T09:35:58;68584.66;;;-146.40;30.45
13033;BME280;6583;42.632;23.298;2023-08-21T09:38:26;68568.50;;;-146.40;30.76
13033;BME280;6583;42.632;23.298;2023-08-21T09:40:55;68564.44;;;-146.40;30.27
13033;BME280;6583;42.632;23.298;2023-08-21T09:43:22;68564.44;;;-146.40;30.15
13033;BME280;6583;42.632;23.298;2023-08-21T09:45:51;68568.50;;;-146.40;30.84
13033;BME280;6583;42.632;23.298;2023-08-21T09:48:21;68558.38;;;-146.40;30.05
13033;BME280;6583;42.632;23.298;2023-08-21T09:50:48;68556.34;;;-146.40;29.60
13033;BME280;6583;42.632;23.298;2023-08-21T09:53:15;68566.47;;;-146.40;30.21
13033;BME280;6583;42.632;23.298;2023-08-21T09:55:42;68586.69;;;-146.40;30.64
13033;BME280;6583;42.632;23.298;2023-08-21T09:58:10;68580.63;;;-146.40;29.76
13033;BME280;6583;42.632;23.298;2023-08-21T10:00:38;68580.63;;;-146.40;29.81
13033;BME280;6583;42.632;23.298;2023-08-21T10:03:07;68572.53;;;-146.40;29.59
13033;BME280;6583;42.632;23.298;2023-08-21T10:05:37;68568.50;;;-146.40;29.97
13033;BME280;6583;42.632;23.298;2023-08-21T10:08:05;68560.41;;;-146.40;29.64
13033;BME280;6583;42.632;23.298;2023-08-21T10:10:34;68566.47;;;-146.40;30.07
13033;BME280;6583;42.632;23.298;2023-08-21T10:13:02;68576.56;;;-146.40;29.52
13033;BME280;6583;42.632;23.298;2023-08-21T10:15:31;68556.34;;;-146.40;29.71
13033;BME280;6583;42.632;23.298;2023-08-21T10:18:17;68550.28;;;-146.40;29.34
13033;BME280;6583;42.632;23.298;2023-08-21T10:20:44;68564.44;;;-146.40;29.16
13033;BME280;6583;42.632;23.298;2023-08-21T10:23:23;68558.38;;;-146.40;30.78
13033;BME280;6583;42.632;23.298;2023-08-21T10:25:54;68562.41;;;-146.40;29.55
13033;BME280;6583;42.632;23.298;2023-08-21T10:28:21;68550.28;;;-146.40;30.13
13033;BME280;6583;42.632;23.298;2023-08-21T10:30:50;68532.09;;;-146.40;29.60
13033;BME280;6583;42.632;23.298;2023-08-21T10:33:17;68524.00;;;-146.40;28.73
13033;BME280;6583;42.632;23.298;2023-08-21T10:35:45;68511.88;;;-146.40;28.85
13033;BME280;6583;42.632;23.298;2023-08-21T10:38:12;68505.81;;;-146.40;28.58
13033;BME280;6583;42.632;23.298;2023-08-21T10:40:41;68515.91;;;-146.40;29.26
13033;BME280;6583;42.632;23.298;2023-08-21T10:43:37;68507.81;;;-146.40;28.52
13033;BME280;6583;42.632;23.298;2023-08-21T10:46:05;68528.06;;;-146.40;28.76
13033;BME280;6583;42.632;23.298;2023-08-21T10:48:32;68519.97;;;-146.40;28.31
13033;BME280;6583;42.632;23.298;2023-08-21T10:51:01;68524.00;;;-146.40;28.55
13033;BME280;6583;42.632;23.298;2023-08-21T10:53:28;68519.97;;;-146.40;28.38
13033;BME280;6583;42.632;23.298;2023-08-21T10:55:55;68530.06;;;-146.40;28.69
13033;BME280;6583;42.632;23.298;2023-08-21T10:58:22;68544.22;;;-146.40;28.08
13033;BME280;6583;42.632;23.298;2023-08-21T11:00:56;68544.22;;;-146.40;28.87
13033;BME280;6583;42.632;23.298;2023-08-21T11:03:25;68524.00;;;-146.40;29.28
13033;BME280;6583;42.632;23.298;2023-08-21T11:06:02;68515.91;;;-146.40;27.85
13033;BME280;6583;42.632;23.298;2023-08-21T11:08:29;68503.78;;;-146.40;27.90
13033;BME280;6583;42.632;23.298;2023-08-21T11:10:56;68505.81;;;-146.40;28.51
13033;BME280;6583;42.632;23.298;2023-08-21T11:13:23;68487.59;;;-146.40;29.26
13033;BME280;6583;42.632;23.298;2023-08-21T11:15:57;68475.47;;;-146.40;28.50
13033;BME280;6583;42.632;23.298;2023-08-21T11:18:31;68473.47;;;-146.40;28.73
13033;BME280;6583;42.632;23.298;2023-08-21T11:21:04;68461.31;;;-146.40;28.78
13033;BME280;6583;42.632;23.298;2023-08-21T11:23:36;68463.34;;;-146.40;28.98
13033;BME280;6583;42.632;23.298;2023-08-21T11:26:03;68467.38;;;-146.40;27.49
13033;BME280;6583;42.632;23.298;2023-08-21T11:28:30;68471.44;;;-146.40;27.44
13033;BME280;6583;42.632;23.298;2023-08-21T11:30:58;68463.34;;;-146.40;27.23
13033;BME280;6583;42.632;23.298;2023-08-21T11:33:25;68461.31;;;-146.40;28.23
13033;BME280;6583;42.632;23.298;2023-08-21T11:35:54;68477.50;;;-146.40;28.36
13033;BME280;6583;42.632;23.298;2023-08-21T11:38:26;68477.50;;;-146.40;28.38
13033;BME280;6583;42.632;23.298;2023-08-21T11:40:54;68469.41;;;-146.40;29.12
13033;BME280;6583;42.632;23.298;2023-08-21T11:43:22;68467.38;;;-146.40;28.48
13033;BME280;6583;42.632;23.298;2023-08-21T11:45:49;68455.25;;;-146.40;28.80
13033;BME280;6583;42.632;23.298;2023-08-21T11:48:19;68453.22;;;-146.40;28.54
13033;BME280;6583;42.632;23.298;2023-08-21T11:50:47;68461.31;;;-146.40;28.34
13033;BME280;6583;42.632;23.298;2023-08-21T11:53:31;68461.31;;;-146.40;29.24
13033;BME280;6583;42.632;23.298;2023-08-21T11:55:57;68459.31;;;-146.40;28.13
13033;BME280;6583;42.632;23.298;2023-08-21T11:58:26;68457.28;;;-146.40;27.89
13033;BME280;6583;42.632;23.298;2023-08-21T12:00:53;68467.38;;;-146.40;27.76
13033;BME280;6583;42.632;23.298;2023-08-21T12:03:19;68475.47;;;-146.40;27.85
13033;BME280;6583;42.632;23.298;2023-08-21T12:05:46;68475.47;;;-146.40;27.44
13033;BME280;6583;42.632;23.298;2023-08-21T12:08:13;68481.53;;;-146.40;27.43
13033;BME280;6583;42.632;23.298;2023-08-21T12:10:41;68491.66;;;-146.40;27.00
13033;BME280;6583;42.632;23.298;2023-08-21T12:13:07;68493.69;;;-146.40;27.24
13033;BME280;6583;42.632;23.298;2023-08-21T12:15:34;68491.66;;;-146.40;27.11
13033;BME280;6583;42.632;23.298;2023-08-21T12:18:01;68475.47;;;-146.40;27.56
13033;BME280;6583;42.632;23.298;2023-08-21T12:20:27;68487.59;;;-146.40;26.71
13033;BME280;6583;42.632;23.298;2023-08-21T12:22:54;68481.53;;;-146.40;26.80
13033;BME280;6583;42.632;23.298;2023-08-21T12:25:21;68479.53;;;-146.40;25.95
13033;BME280;6583;42.632;23.298;2023-08-21T12:27:49;68475.47;;;-146.40;26.64
13033;BME280;6583;42.632;23.298;2023-08-21T12:30:16;68485.59;;;-146.40;26.71
13033;BME280;6583;42.632;23.298;2023-08-21T12:32:43;68487.59;;;-146.40;26.86
13033;BME280;6583;42.632;23.298;2023-08-21T12:35:09;68483.56;;;-146.40;26.83
13033;BME280;6583;42.632;23.298;2023-08-21T12:37:37;68471.44;;;-146.40;26.53
13033;BME280;6583;42.632;23.298;2023-08-21T12:40:05;68469.41;;;-146.40;27.04
13033;BME280;6583;42.632;23.298;2023-08-21T12:42:32;68467.38;;;-146.40;27.51